sensor_id;sensor_type;location;lat;lon;timestamp;temperature;humidity
1155;DHT22;566;48.414;9.118;2023-05-10T00:02:24;11.80;70.90
1155;DHT22;566;48.414;9.118;2023-05-10T00:04:50;11.80;70.30
1155;DHT22;566;48.414;9.118;2023-05-10T00:07:15;11.80;68.80
1155;DHT22;566;48.414;9.118;2023-05-10T00:09:43;11.70;67.50
1155;DHT22;566;48.414;9.118;2023-05-10T00:12:08;11.70;66.00
1155;DHT22;566;48.414;9.118;2023-05-10T00:14:34;11.70;65.10
1155;DHT22;566;48.414;9.118;2023-05-10T00:17:02;11.70;63.60
1155;DHT22;566;48.414;9.118;2023-05-10T00:19:28;11.70;62.60
1155;DHT22;566;48.414;9.118;2023-05-10T00:21:53;11.70;62.20
1155;DHT22;566;48.414;9.118;2023-05-10T00:24:19;11.70;61.90
1155;DHT22;566;48.414;9.118;2023-05-10T00:26:44;11.70;61.90
1155;DHT22;566;48.414;9.118;2023-05-10T00:29:10;11.70;61.90
1155;DHT22;566;48.414;9.118;2023-05-10T00:31:36;11.70;61.30
1155;DHT22;566;48.414;9.118;2023-05-10T00:34:01;11.70;61.80
1155;DHT22;566;48.414;9.118;2023-05-10T00:36:27;11.70;61.70
1155;DHT22;566;48.414;9.118;2023-05-10T00:38:53;11.60;61.50
1155;DHT22;566;48.414;9.118;2023-05-10T00:41:18;11.60;61.10
1155;DHT22;566;48.414;9.118;2023-05-10T00:43:44;11.60;61.00
1155;DHT22;566;48.414;9.118;2023-05-10T00:46:10;11.60;60.90
1155;DHT22;566;48.414;9.118;2023-05-10T00:48:36;11.60;60.60
1155;DHT22;566;48.414;9.118;2023-05-10T00:51:01;11.60;60.50
1155;DHT22;566;48.414;9.118;2023-05-10T00:53:27;11.60;60.30
1155;DHT22;566;48.414;9.118;2023-05-10T00:55:54;11.50;60.40
1155;DHT22;566;48.414;9.118;2023-05-10T00:58:20;11.50;59.90
1155;DHT22;566;48.414;9.118;2023-05-10T01:00:46;11.50;59.90
1155;DHT22;566;48.414;9.118;2023-05-10T01:03:13;11.50;60.20
1155;DHT22;566;48.414;9.118;2023-05-10T01:05:39;11.40;60.20
1155;DHT22;566;48.414;9.118;2023-05-10T01:08:05;11.30;60.20
1155;DHT22;566;48.414;9.118;2023-05-10T01:10:31;11.20;60.10
1155;DHT22;566;48.414;9.118;2023-05-10T01:12:59;11.20;60.00
1155;DHT22;566;48.414;9.118;2023-05-10T01:15:25;11.20;60.00
1155;DHT22;566;48.414;9.118;2023-05-10T01:17:51;11.20;59.90
1155;DHT22;566;48.414;9.118;2023-05-10T01:20:17;11.20;59.80
1155;DHT22;566;48.414;9.118;2023-05-10T01:28:56;11.10;59.80
1155;DHT22;566;48.414;9.118;2023-05-10T01:34:09;11.10;59.60
1155;DHT22;566;48.414;9.118;2023-05-10T01:36:51;11.10;59.70
1155;DHT22;566;48.414;9.118;2023-05-10T01:40:06;11.10;59.70
1155;DHT22;566;48.414;9.118;2023-05-10T01:42:16;11.10;59.70
1155;DHT22;566;48.414;9.118;2023-05-10T01:45:19;11.10;59.70
1155;DHT22;566;48.414;9.118;2023-05-10T01:48:11;11.10;59.60
1155;DHT22;566;48.414;9.118;2023-05-10T01:50:43;11.00;59.70
1155;DHT22;566;48.414;9.118;2023-05-10T01:53:13;11.10;59.60
1155;DHT22;566;48.414;9.118;2023-05-10T01:55:48;11.00;59.90
1155;DHT22;566;48.414;9.118;2023-05-10T01:58:25;11.00;59.80
1155;DHT22;566;48.414;9.118;2023-05-10T02:00:52;10.90;60.00
1155;DHT22;566;48.414;9.118;2023-05-10T02:03:21;10.90;60.30
1155;DHT22;566;48.414;9.118;2023-05-10T02:05:48;10.90;60.30
1155;DHT22;566;48.414;9.118;2023-05-10T02:08:17;10.90;60.20
1155;DHT22;566;48.414;9.118;2023-05-10T02:10:45;10.80;60.40
1155;DHT22;566;48.414;9.118;2023-05-10T02:13:12;10.80;60.40
1155;DHT22;566;48.414;9.118;2023-05-10T02:15:40;10.80;60.30
1155;DHT22;566;48.414;9.118;2023-05-10T02:18:07;10.80;60.30
1155;DHT22;566;48.414;9.118;2023-05-10T02:20:35;10.70;60.20
1155;DHT22;566;48.414;9.118;2023-05-10T02:23:02;10.70;60.30
1155;DHT22;566;48.414;9.118;2023-05-10T02:25:29;10.70;60.10
1155;DHT22;566;48.414;9.118;2023-05-10T02:27:56;10.70;59.90
1155;DHT22;566;48.414;9.118;2023-05-10T02:30:23;10.70;59.80
1155;DHT22;566;48.414;9.118;2023-05-10T02:32:50;10.80;59.90
1155;DHT22;566;48.414;9.118;2023-05-10T02:35:16;10.70;60.10
1155;DHT22;566;48.414;9.118;2023-05-10T02:37:44;10.70;59.90
1155;DHT22;566;48.414;9.118;2023-05-10T02:40:11;10.70;59.90
1155;DHT22;566;48.414;9.118;2023-05-10T02:42:38;10.70;60.00
1155;DHT22;566;48.414;9.118;2023-05-10T02:45:10;10.70;60.10
1155;DHT22;566;48.414;9.118;2023-05-10T02:47:37;10.70;60.00
1155;DHT22;566;48.414;9.118;2023-05-10T02:50:03;10.70;60.10
1155;DHT22;566;48.414;9.118;2023-05-10T02:52:39;10.70;60.00
1155;DHT22;566;48.414;9.118;2023-05-10T02:55:05;10.70;60.00
1155;DHT22;566;48.414;9.118;2023-05-10T02:57:34;10.70;60.00
1155;DHT22;566;48.414;9.118;2023-05-10T03:00:04;10.70;60.30
1155;DHT22;566;48.414;9.118;2023-05-10T03:02:31;10.60;60.50
1155;DHT22;566;48.414;9.118;2023-05-10T03:04:57;10.60;60.50
1155;DHT22;566;48.414;9.118;2023-05-10T03:07:23;10.50;60.60
1155;DHT22;566;48.414;9.118;2023-05-10T03:09:52;10.50;60.40
1155;DHT22;566;48.414;9.118;2023-05-10T03:17:56;10.50;60.70
1155;DHT22;566;48.414;9.118;2023-05-10T03:20:26;10.50;60.50
1155;DHT22;566;48.414;9.118;2023-05-10T03:23:05;10.40;60.60
1155;DHT22;566;48.414;9.118;2023-05-10T03:25:33;10.40;61.40
1155;DHT22;566;48.414;9.118;2023-05-10T03:28:04;10.30;61.60
1155;DHT22;566;48.414;9.118;2023-05-10T03:30:30;10.30;61.60
1155;DHT22;566;48.414;9.118;2023-05-10T03:32:56;10.30;61.80
1155;DHT22;566;48.414;9.118;2023-05-10T03:35:23;10.40;62.10
1155;DHT22;566;48.414;9.118;2023-05-10T03:37:52;10.40;62.60
1155;DHT22;566;48.414;9.118;2023-05-10T03:40:18;10.40;63.20
1155;DHT22;566;48.414;9.118;2023-05-10T03:42:43;10.40;63.30
1155;DHT22;566;48.414;9.118;2023-05-10T03:45:09;10.50;63.70
1155;DHT22;566;48.414;9.118;2023-05-10T03:47:37;10.50;64.30
1155;DHT22;566;48.414;9.118;2023-05-10T03:50:03;10.40;66.50
1155;DHT22;566;48.414;9.118;2023-05-10T03:52:29;10.30;67.80
1155;DHT22;566;48.414;9.118;2023-05-10T03:54:54;10.30;67.80
1155;DHT22;566;48.414;9.118;2023-05-10T03:57:20;10.30;68.30
1155;DHT22;566;48.414;9.118;2023-05-10T03:59:45;10.30;67.80
1155;DHT22;566;48.414;9.118;2023-05-10T04:02:11;10.30;67.30
1155;DHT22;566;48.414;9.118;2023-05-10T04:04:37;10.30;69.10
1155;DHT22;566;48.414;9.118;2023-05-10T04:07:03;10.40;69.60
1155;DHT22;566;48.414;9.118;2023-05-10T04:09:28;10.40;69.80
1155;DHT22;566;48.414;9.118;2023-05-10T04:11:54;10.40;69.70
1155;DHT22;566;48.414;9.118;2023-05-10T04:14:19;10.50;69.90
1155;DHT22;566;48.414;9.118;2023-05-10T04:16:45;10.50;69.60
1155;DHT22;566;48.414;9.118;2023-05-10T04:19:11;10.50;69.30
1155;DHT22;566;48.414;9.118;2023-05-10T04:21:39;10.50;69.60
1155;DHT22;566;48.414;9.118;2023-05-10T04:24:05;10.50;70.40
1155;DHT22;566;48.414;9.118;2023-05-10T04:26:31;10.50;71.10
1155;DHT22;566;48.414;9.118;2023-05-10T04:28:56;10.60;71.30
1155;DHT22;566;48.414;9.118;2023-05-10T04:31:22;10.60;71.70
1155;DHT22;566;48.414;9.118;2023-05-10T04:33:47;10.60;72.50
1155;DHT22;566;48.414;9.118;2023-05-10T04:36:13;10.60;72.50
1155;DHT22;566;48.414;9.118;2023-05-10T04:38:39;10.60;72.70
1155;DHT22;566;48.414;9.118;2023-05-10T04:41:06;10.70;72.50
1155;DHT22;566;48.414;9.118;2023-05-10T04:43:32;10.70;72.60
1155;DHT22;566;48.414;9.118;2023-05-10T04:45:58;10.70;72.60
1155;DHT22;566;48.414;9.118;2023-05-10T04:48:23;10.70;72.60
1155;DHT22;566;48.414;9.118;2023-05-10T04:50:49;10.70;72.80
1155;DHT22;566;48.414;9.118;2023-05-10T04:53:14;10.70;72.60
1155;DHT22;566;48.414;9.118;2023-05-10T04:55:40;10.70;73.60
1155;DHT22;566;48.414;9.118;2023-05-10T04:58:05;10.70;73.30
1155;DHT22;566;48.414;9.118;2023-05-10T05:00:31;10.80;73.40
1155;DHT22;566;48.414;9.118;2023-05-10T05:02:58;10.80;74.00
1155;DHT22;566;48.414;9.118;2023-05-10T05:05:23;10.90;75.30
1155;DHT22;566;48.414;9.118;2023-05-10T05:07:49;10.80;76.20
1155;DHT22;566;48.414;9.118;2023-05-10T05:10:14;10.80;76.80
1155;DHT22;566;48.414;9.118;2023-05-10T05:12:40;10.80;76.00
1155;DHT22;566;48.414;9.118;2023-05-10T05:15:06;10.80;77.70
1155;DHT22;566;48.414;9.118;2023-05-10T05:17:33;10.80;78.10
1155;DHT22;566;48.414;9.118;2023-05-10T05:19:59;10.80;77.90
1155;DHT22;566;48.414;9.118;2023-05-10T05:22:24;10.90;78.90
1155;DHT22;566;48.414;9.118;2023-05-10T05:24:56;10.90;79.00
1155;DHT22;566;48.414;9.118;2023-05-10T05:27:24;10.90;78.80
1155;DHT22;566;48.414;9.118;2023-05-10T05:29:56;10.90;78.30
1155;DHT22;566;48.414;9.118;2023-05-10T05:32:22;11.00;79.10
1155;DHT22;566;48.414;9.118;2023-05-10T05:34:48;11.00;80.60
1155;DHT22;566;48.414;9.118;2023-05-10T05:37:18;11.00;80.10
1155;DHT22;566;48.414;9.118;2023-05-10T05:39:44;11.20;80.40
1155;DHT22;566;48.414;9.118;2023-05-10T05:42:11;11.20;81.20
1155;DHT22;566;48.414;9.118;2023-05-10T05:44:37;11.20;82.10
1155;DHT22;566;48.414;9.118;2023-05-10T05:47:03;11.10;84.80
1155;DHT22;566;48.414;9.118;2023-05-10T05:49:29;11.10;84.60
1155;DHT22;566;48.414;9.118;2023-05-10T05:51:58;11.00;81.70
1155;DHT22;566;48.414;9.118;2023-05-10T05:54:23;11.00;80.60
1155;DHT22;566;48.414;9.118;2023-05-10T05:56:49;11.00;80.50
1155;DHT22;566;48.414;9.118;2023-05-10T05:59:14;11.00;80.30
1155;DHT22;566;48.414;9.118;2023-05-10T06:01:40;11.00;80.90
1155;DHT22;566;48.414;9.118;2023-05-10T06:04:05;11.00;80.30
1155;DHT22;566;48.414;9.118;2023-05-10T06:06:31;11.00;80.10
1155;DHT22;566;48.414;9.118;2023-05-10T06:08:57;11.10;81.50
1155;DHT22;566;48.414;9.118;2023-05-10T06:11:23;11.10;82.00
1155;DHT22;566;48.414;9.118;2023-05-10T06:13:49;11.20;82.80
1155;DHT22;566;48.414;9.118;2023-05-10T06:16:14;11.30;83.10
1155;DHT22;566;48.414;9.118;2023-05-10T06:18:40;11.30;83.90
1155;DHT22;566;48.414;9.118;2023-05-10T06:21:05;11.30;85.90
1155;DHT22;566;48.414;9.118;2023-05-10T06:23:31;11.30;85.90
1155;DHT22;566;48.414;9.118;2023-05-10T06:25:56;11.40;84.70
1155;DHT22;566;48.414;9.118;2023-05-10T06:28:22;11.50;88.70
1155;DHT22;566;48.414;9.118;2023-05-10T06:30:47;11.60;88.80
1155;DHT22;566;48.414;9.118;2023-05-10T06:33:13;11.70;94.80
1155;DHT22;566;48.414;9.118;2023-05-10T06:35:39;11.80;96.10
1155;DHT22;566;48.414;9.118;2023-05-10T06:38:04;11.90;96.90
1155;DHT22;566;48.414;9.118;2023-05-10T06:40:30;11.90;96.10
1155;DHT22;566;48.414;9.118;2023-05-10T06:42:55;12.10;96.30
1155;DHT22;566;48.414;9.118;2023-05-10T06:45:21;12.20;96.60
1155;DHT22;566;48.414;9.118;2023-05-10T06:47:46;12.30;97.10
1155;DHT22;566;48.414;9.118;2023-05-10T06:50:12;12.30;96.50
1155;DHT22;566;48.414;9.118;2023-05-10T06:52:38;12.30;96.70
1155;DHT22;566;48.414;9.118;2023-05-10T06:55:04;12.20;95.70
1155;DHT22;566;48.414;9.118;2023-05-10T06:57:31;12.20;95.60
1155;DHT22;566;48.414;9.118;2023-05-10T07:00:00;12.20;94.90
1155;DHT22;566;48.414;9.118;2023-05-10T07:02:25;12.20;94.70
1155;DHT22;566;48.414;9.118;2023-05-10T07:04:51;12.30;95.00
1155;DHT22;566;48.414;9.118;2023-05-10T07:07:17;12.50;95.30
1155;DHT22;566;48.414;9.118;2023-05-10T07:09:43;12.40;95.60
1155;DHT22;566;48.414;9.118;2023-05-10T07:12:08;12.30;94.30
1155;DHT22;566;48.414;9.118;2023-05-10T07:14:34;12.20;95.00
1155;DHT22;566;48.414;9.118;2023-05-10T07:17:00;12.10;93.80
1155;DHT22;566;48.414;9.118;2023-05-10T07:19:25;12.00;94.70
1155;DHT22;566;48.414;9.118;2023-05-10T07:21:51;12.00;93.80
1155;DHT22;566;48.414;9.118;2023-05-10T07:24:17;12.00;92.20
1155;DHT22;566;48.414;9.118;2023-05-10T07:26:42;11.80;91.10
1155;DHT22;566;48.414;9.118;2023-05-10T07:29:08;11.70;89.40
1155;DHT22;566;48.414;9.118;2023-05-10T07:31:34;11.70;88.50
1155;DHT22;566;48.414;9.118;2023-05-10T07:33:59;11.80;87.10
1155;DHT22;566;48.414;9.118;2023-05-10T07:36:25;11.80;88.90
1155;DHT22;566;48.414;9.118;2023-05-10T07:38:50;11.90;89.80
1155;DHT22;566;48.414;9.118;2023-05-10T07:41:16;11.90;92.00
1155;DHT22;566;48.414;9.118;2023-05-10T07:43:41;12.00;91.50
1155;DHT22;566;48.414;9.118;2023-05-10T07:46:07;12.10;91.40
1155;DHT22;566;48.414;9.118;2023-05-10T07:48:36;12.20;93.40
1155;DHT22;566;48.414;9.118;2023-05-10T07:51:01;12.20;95.10
1155;DHT22;566;48.414;9.118;2023-05-10T07:53:27;12.30;97.90
1155;DHT22;566;48.414;9.118;2023-05-10T07:55:57;12.30;97.90
1155;DHT22;566;48.414;9.118;2023-05-10T07:58:24;12.30;98.00
1155;DHT22;566;48.414;9.118;2023-05-10T08:00:49;12.40;97.50
1155;DHT22;566;48.414;9.118;2023-05-10T08:03:15;12.60;98.00
1155;DHT22;566;48.414;9.118;2023-05-10T08:05:41;12.80;98.00
1155;DHT22;566;48.414;9.118;2023-05-10T08:08:06;13.00;98.00
1155;DHT22;566;48.414;9.118;2023-05-10T08:10:32;13.00;98.00
1155;DHT22;566;48.414;9.118;2023-05-10T08:12:57;13.10;98.00
1155;DHT22;566;48.414;9.118;2023-05-10T08:15:24;13.10;98.00
1155;DHT22;566;48.414;9.118;2023-05-10T08:17:51;13.20;98.00
1155;DHT22;566;48.414;9.118;2023-05-10T08:20:17;13.30;98.00
1155;DHT22;566;48.414;9.118;2023-05-10T08:22:45;13.60;98.00
1155;DHT22;566;48.414;9.118;2023-05-10T08:25:13;13.80;98.00
1155;DHT22;566;48.414;9.118;2023-05-10T08:27:39;14.00;98.00
1155;DHT22;566;48.414;9.118;2023-05-10T08:30:05;14.30;98.00
1155;DHT22;566;48.414;9.118;2023-05-10T08:32:31;14.80;98.00
1155;DHT22;566;48.414;9.118;2023-05-10T08:34:56;14.80;97.90
1155;DHT22;566;48.414;9.118;2023-05-10T08:37:25;14.50;97.70
1155;DHT22;566;48.414;9.118;2023-05-10T08:39:51;14.70;98.00
1155;DHT22;566;48.414;9.118;2023-05-10T08:42:19;14.80;97.30
1155;DHT22;566;48.414;9.118;2023-05-10T08:44:48;14.60;97.70
1155;DHT22;566;48.414;9.118;2023-05-10T08:47:16;14.30;97.90
1155;DHT22;566;48.414;9.118;2023-05-10T08:49:44;13.90;98.00
1155;DHT22;566;48.414;9.118;2023-05-10T08:52:13;14.10;98.00
1155;DHT22;566;48.414;9.118;2023-05-10T08:54:41;14.20;97.90
1155;DHT22;566;48.414;9.118;2023-05-10T08:57:07;14.20;97.20
1155;DHT22;566;48.414;9.118;2023-05-10T08:59:33;14.20;98.00
1155;DHT22;566;48.414;9.118;2023-05-10T09:01:59;14.30;97.40
1155;DHT22;566;48.414;9.118;2023-05-10T09:04:26;14.20;97.20
1155;DHT22;566;48.414;9.118;2023-05-10T09:06:51;14.20;97.10
1155;DHT22;566;48.414;9.118;2023-05-10T09:09:18;14.20;97.40
1155;DHT22;566;48.414;9.118;2023-05-10T09:11:44;14.30;97.40
1155;DHT22;566;48.414;9.118;2023-05-10T09:14:11;14.30;96.70
1155;DHT22;566;48.414;9.118;2023-05-10T09:16:38;14.20;96.20
1155;DHT22;566;48.414;9.118;2023-05-10T09:19:03;14.10;95.30
1155;DHT22;566;48.414;9.118;2023-05-10T09:21:29;14.20;96.00
1155;DHT22;566;48.414;9.118;2023-05-10T09:23:55;14.40;96.30
1155;DHT22;566;48.414;9.118;2023-05-10T09:26:24;14.40;95.80
1155;DHT22;566;48.414;9.118;2023-05-10T09:28:54;14.20;95.70
1155;DHT22;566;48.414;9.118;2023-05-10T09:31:20;13.80;96.40
1155;DHT22;566;48.414;9.118;2023-05-10T09:33:51;13.80;97.10
1155;DHT22;566;48.414;9.118;2023-05-10T09:36:17;14.10;97.50
1155;DHT22;566;48.414;9.118;2023-05-10T09:38:47;14.40;96.20
1155;DHT22;566;48.414;9.118;2023-05-10T09:41:23;14.20;95.70
1155;DHT22;566;48.414;9.118;2023-05-10T09:43:49;13.90;95.30
1155;DHT22;566;48.414;9.118;2023-05-10T09:46:15;13.80;96.20
1155;DHT22;566;48.414;9.118;2023-05-10T09:48:43;13.70;96.80
1155;DHT22;566;48.414;9.118;2023-05-10T09:51:09;13.50;97.70
1155;DHT22;566;48.414;9.118;2023-05-10T09:53:35;13.20;97.70
1155;DHT22;566;48.414;9.118;2023-05-10T09:56:01;13.10;98.00
1155;DHT22;566;48.414;9.118;2023-05-10T09:58:27;13.10;98.00
1155;DHT22;566;48.414;9.118;2023-05-10T10:00:53;13.10;98.00
1155;DHT22;566;48.414;9.118;2023-05-10T10:03:20;13.20;98.00
1155;DHT22;566;48.414;9.118;2023-05-10T10:05:48;13.40;98.00
1155;DHT22;566;48.414;9.118;2023-05-10T10:08:14;13.50;98.00
1155;DHT22;566;48.414;9.118;2023-05-10T10:10:41;13.40;98.00
1155;DHT22;566;48.414;9.118;2023-05-10T10:13:07;13.60;98.00
1155;DHT22;566;48.414;9.118;2023-05-10T10:15:34;13.70;98.00
1155;DHT22;566;48.414;9.118;2023-05-10T10:17:59;13.90;98.00
1155;DHT22;566;48.414;9.118;2023-05-10T10:20:26;14.20;98.00
1155;DHT22;566;48.414;9.118;2023-05-10T10:22:52;14.60;97.50
1155;DHT22;566;48.414;9.118;2023-05-10T10:25:19;15.10;97.10
1155;DHT22;566;48.414;9.118;2023-05-10T10:35:46;15.60;92.70
1155;DHT22;566;48.414;9.118;2023-05-10T10:38:13;15.80;92.30
1155;DHT22;566;48.414;9.118;2023-05-10T10:40:39;16.40;92.00
1155;DHT22;566;48.414;9.118;2023-05-10T10:43:28;16.50;91.20
1155;DHT22;566;48.414;9.118;2023-05-10T10:46:14;16.80;89.90
1155;DHT22;566;48.414;9.118;2023-05-10T10:48:52;17.30;87.60
1155;DHT22;566;48.414;9.118;2023-05-10T10:51:39;17.30;87.70
1155;DHT22;566;48.414;9.118;2023-05-10T10:54:12;17.10;88.20
1155;DHT22;566;48.414;9.118;2023-05-10T10:56:37;16.60;88.60
1155;DHT22;566;48.414;9.118;2023-05-10T10:59:03;16.70;89.20
1155;DHT22;566;48.414;9.118;2023-05-10T11:01:41;17.00;89.30
1155;DHT22;566;48.414;9.118;2023-05-10T11:06:35;17.10;88.50
1155;DHT22;566;48.414;9.118;2023-05-10T11:09:12;17.20;87.10
1155;DHT22;566;48.414;9.118;2023-05-10T11:12:07;16.70;86.80
1155;DHT22;566;48.414;9.118;2023-05-10T11:14:33;16.10;89.60
1155;DHT22;566;48.414;9.118;2023-05-10T11:16:58;16.30;89.10
1155;DHT22;566;48.414;9.118;2023-05-10T11:19:28;16.50;89.40
1155;DHT22;566;48.414;9.118;2023-05-10T11:22:14;16.50;87.90
1155;DHT22;566;48.414;9.118;2023-05-10T11:24:40;16.20;88.70
1155;DHT22;566;48.414;9.118;2023-05-10T11:27:22;16.30;89.40
1155;DHT22;566;48.414;9.118;2023-05-10T11:29:51;15.00;89.00
1155;DHT22;566;48.414;9.118;2023-05-10T11:32:17;13.80;91.80
1155;DHT22;566;48.414;9.118;2023-05-10T11:34:47;13.20;95.20
1155;DHT22;566;48.414;9.118;2023-05-10T11:37:13;12.90;95.80
1155;DHT22;566;48.414;9.118;2023-05-10T11:39:38;12.70;96.30
1155;DHT22;566;48.414;9.118;2023-05-10T11:42:12;12.60;96.90
1155;DHT22;566;48.414;9.118;2023-05-10T11:44:37;12.40;96.10
1155;DHT22;566;48.414;9.118;2023-05-10T11:47:03;12.40;95.70
1155;DHT22;566;48.414;9.118;2023-05-10T11:49:29;12.40;95.50
1155;DHT22;566;48.414;9.118;2023-05-10T11:52:04;12.50;95.00
1155;DHT22;566;48.414;9.118;2023-05-10T11:54:30;12.80;93.80
1155;DHT22;566;48.414;9.118;2023-05-10T11:56:56;12.90;93.00
1155;DHT22;566;48.414;9.118;2023-05-10T11:59:22;13.10;91.20
1155;DHT22;566;48.414;9.118;2023-05-10T12:01:50;13.40;91.50
1155;DHT22;566;48.414;9.118;2023-05-10T12:04:16;13.70;90.10
1155;DHT22;566;48.414;9.118;2023-05-10T12:06:42;14.00;88.60
1155;DHT22;566;48.414;9.118;2023-05-10T12:09:08;13.90;88.60
1155;DHT22;566;48.414;9.118;2023-05-10T12:11:39;13.80;88.10
1155;DHT22;566;48.414;9.118;2023-05-10T12:14:05;13.80;88.30
1155;DHT22;566;48.414;9.118;2023-05-10T12:16:31;13.90;87.30
1155;DHT22;566;48.414;9.118;2023-05-10T12:18:58;13.80;87.00
1155;DHT22;566;48.414;9.118;2023-05-10T12:21:24;13.40;87.10
1155;DHT22;566;48.414;9.118;2023-05-10T12:23:51;13.40;88.20
1155;DHT22;566;48.414;9.118;2023-05-10T12:26:17;13.80;87.80
1155;DHT22;566;48.414;9.118;2023-05-10T12:28:43;14.20;88.20
1155;DHT22;566;48.414;9.118;2023-05-10T12:31:09;14.10;86.40
1155;DHT22;566;48.414;9.118;2023-05-10T12:33:40;14.30;87.30
1155;DHT22;566;48.414;9.118;2023-05-10T12:36:09;14.40;86.90
1155;DHT22;566;48.414;9.118;2023-05-10T12:38:42;14.00;87.00
1155;DHT22;566;48.414;9.118;2023-05-10T12:41:10;13.80;88.70
1155;DHT22;566;48.414;9.118;2023-05-10T12:43:37;13.80;89.70
1155;DHT22;566;48.414;9.118;2023-05-10T12:46:14;14.10;90.10
1155;DHT22;566;48.414;9.118;2023-05-10T12:48:41;14.20;88.30
1155;DHT22;566;48.414;9.118;2023-05-10T12:51:08;14.10;88.90
1155;DHT22;566;48.414;9.118;2023-05-10T12:53:35;14.20;88.70
1155;DHT22;566;48.414;9.118;2023-05-10T12:56:01;14.40;87.90
1155;DHT22;566;48.414;9.118;2023-05-10T12:58:27;14.60;89.10
1155;DHT22;566;48.414;9.118;2023-05-10T13:00:52;14.90;87.80
1155;DHT22;566;48.414;9.118;2023-05-10T13:03:18;14.90;88.00
1155;DHT22;566;48.414;9.118;2023-05-10T13:05:44;15.00;86.90
1155;DHT22;566;48.414;9.118;2023-05-10T13:08:09;15.10;87.00
1155;DHT22;566;48.414;9.118;2023-05-10T13:10:35;15.40;85.60
1155;DHT22;566;48.414;9.118;2023-05-10T13:13:00;15.30;85.60
1155;DHT22;566;48.414;9.118;2023-05-10T13:15:26;15.20;86.60
1155;DHT22;566;48.414;9.118;2023-05-10T13:17:53;15.30;87.10
1155;DHT22;566;48.414;9.118;2023-05-10T13:20:19;15.80;85.20
1155;DHT22;566;48.414;9.118;2023-05-10T13:22:44;15.70;85.00
1155;DHT22;566;48.414;9.118;2023-05-10T13:25:11;15.60;86.40
1155;DHT22;566;48.414;9.118;2023-05-10T13:27:37;15.50;86.30
1155;DHT22;566;48.414;9.118;2023-05-10T13:30:03;15.30;85.90
1155;DHT22;566;48.414;9.118;2023-05-10T13:32:29;15.80;85.90
1155;DHT22;566;48.414;9.118;2023-05-10T13:34:55;15.80;84.80
1155;DHT22;566;48.414;9.118;2023-05-10T13:37:21;16.00;85.00
1155;DHT22;566;48.414;9.118;2023-05-10T13:39:47;15.70;85.00
1155;DHT22;566;48.414;9.118;2023-05-10T13:42:13;15.50;85.40
1155;DHT22;566;48.414;9.118;2023-05-10T13:44:38;15.50;86.00
1155;DHT22;566;48.414;9.118;2023-05-10T13:47:04;15.90;84.20
1155;DHT22;566;48.414;9.118;2023-05-10T13:49:30;15.60;85.30
1155;DHT22;566;48.414;9.118;2023-05-10T13:51:55;15.80;86.70
1155;DHT22;566;48.414;9.118;2023-05-10T13:54:21;16.00;84.80
1155;DHT22;566;48.414;9.118;2023-05-10T13:56:47;16.00;84.50
1155;DHT22;566;48.414;9.118;2023-05-10T13:59:14;16.00;84.40
1155;DHT22;566;48.414;9.118;2023-05-10T14:01:40;16.40;84.40
1155;DHT22;566;48.414;9.118;2023-05-10T14:04:06;16.30;83.30
1155;DHT22;566;48.414;9.118;2023-05-10T14:06:36;16.30;83.60
1155;DHT22;566;48.414;9.118;2023-05-10T14:09:04;16.40;83.90
1155;DHT22;566;48.414;9.118;2023-05-10T14:11:30;16.20;83.20
1155;DHT22;566;48.414;9.118;2023-05-10T14:13:55;16.10;85.00
1155;DHT22;566;48.414;9.118;2023-05-10T14:16:21;16.20;84.00
1155;DHT22;566;48.414;9.118;2023-05-10T14:18:47;16.30;83.60
1155;DHT22;566;48.414;9.118;2023-05-10T14:21:13;16.50;83.90
1155;DHT22;566;48.414;9.118;2023-05-10T14:23:38;16.50;83.20
1155;DHT22;566;48.414;9.118;2023-05-10T14:26:04;16.10;83.90
1155;DHT22;566;48.414;9.118;2023-05-10T14:28:33;16.20;84.40
1155;DHT22;566;48.414;9.118;2023-05-10T14:30:58;16.50;84.70
1155;DHT22;566;48.414;9.118;2023-05-10T14:33:24;16.50;82.70
1155;DHT22;566;48.414;9.118;2023-05-10T14:35:50;16.40;84.20
1155;DHT22;566;48.414;9.118;2023-05-10T14:38:16;16.50;83.10
1155;DHT22;566;48.414;9.118;2023-05-10T14:40:42;16.50;83.20
1155;DHT22;566;48.414;9.118;2023-05-10T14:43:08;16.40;83.90
1155;DHT22;566;48.414;9.118;2023-05-10T14:45:34;16.30;82.90
1155;DHT22;566;48.414;9.118;2023-05-10T14:48:00;16.20;83.10
1155;DHT22;566;48.414;9.118;2023-05-10T14:50:26;15.70;82.80
1155;DHT22;566;48.414;9.118;2023-05-10T14:52:55;15.80;82.70
1155;DHT22;566;48.414;9.118;2023-05-10T14:55:20;15.90;81.80
1155;DHT22;566;48.414;9.118;2023-05-10T14:57:46;15.40;81.70
1155;DHT22;566;48.414;9.118;2023-05-10T15:00:13;15.40;82.50
1155;DHT22;566;48.414;9.118;2023-05-10T15:02:40;15.40;83.00
1155;DHT22;566;48.414;9.118;2023-05-10T15:05:06;15.30;83.90
1155;DHT22;566;48.414;9.118;2023-05-10T15:07:35;15.60;82.80
1155;DHT22;566;48.414;9.118;2023-05-10T15:10:00;15.60;82.40
1155;DHT22;566;48.414;9.118;2023-05-10T15:12:26;15.50;82.40
1155;DHT22;566;48.414;9.118;2023-05-10T15:14:52;15.60;82.10
1155;DHT22;566;48.414;9.118;2023-05-10T15:17:17;15.40;83.90
1155;DHT22;566;48.414;9.118;2023-05-10T15:19:43;15.50;84.10
1155;DHT22;566;48.414;9.118;2023-05-10T15:22:08;15.30;83.80
1155;DHT22;566;48.414;9.118;2023-05-10T15:24:34;15.00;84.30
1155;DHT22;566;48.414;9.118;2023-05-10T15:26:59;14.80;85.70
1155;DHT22;566;48.414;9.118;2023-05-10T15:29:26;14.80;86.40
1155;DHT22;566;48.414;9.118;2023-05-10T15:31:51;14.60;86.00
1155;DHT22;566;48.414;9.118;2023-05-10T15:34:17;14.70;87.40
1155;DHT22;566;48.414;9.118;2023-05-10T15:36:46;14.50;86.10
1155;DHT22;566;48.414;9.118;2023-05-10T15:39:11;14.40;86.70
1155;DHT22;566;48.414;9.118;2023-05-10T15:41:37;14.20;87.40
1155;DHT22;566;48.414;9.118;2023-05-10T15:44:03;14.10;87.30
1155;DHT22;566;48.414;9.118;2023-05-10T15:46:29;14.00;87.70
1155;DHT22;566;48.414;9.118;2023-05-10T15:48:55;14.00;88.30
1155;DHT22;566;48.414;9.118;2023-05-10T15:51:21;13.90;88.70
1155;DHT22;566;48.414;9.118;2023-05-10T15:53:47;13.90;87.80
1155;DHT22;566;48.414;9.118;2023-05-10T15:56:12;13.80;87.60
1155;DHT22;566;48.414;9.118;2023-05-10T15:58:39;13.70;87.50
1155;DHT22;566;48.414;9.118;2023-05-10T16:01:05;13.50;87.50
1155;DHT22;566;48.414;9.118;2023-05-10T16:03:31;13.40;87.90
1155;DHT22;566;48.414;9.118;2023-05-10T16:05:57;13.40;89.20
1155;DHT22;566;48.414;9.118;2023-05-10T16:08:23;13.30;89.10
1155;DHT22;566;48.414;9.118;2023-05-10T16:10:50;13.20;89.80
1155;DHT22;566;48.414;9.118;2023-05-10T16:13:16;13.10;90.50
1155;DHT22;566;48.414;9.118;2023-05-10T16:15:41;13.10;90.80
1155;DHT22;566;48.414;9.118;2023-05-10T16:18:07;13.10;91.00
1155;DHT22;566;48.414;9.118;2023-05-10T16:20:33;13.20;91.20
1155;DHT22;566;48.414;9.118;2023-05-10T16:23:03;13.30;91.80
1155;DHT22;566;48.414;9.118;2023-05-10T16:25:30;13.40;91.70
1155;DHT22;566;48.414;9.118;2023-05-10T16:27:56;13.50;91.30
1155;DHT22;566;48.414;9.118;2023-05-10T16:30:21;13.60;91.40
1155;DHT22;566;48.414;9.118;2023-05-10T16:32:48;13.70;91.50
1155;DHT22;566;48.414;9.118;2023-05-10T16:35:15;13.80;90.90
1155;DHT22;566;48.414;9.118;2023-05-10T16:37:40;13.80;90.70
1155;DHT22;566;48.414;9.118;2023-05-10T16:40:06;13.70;90.50
1155;DHT22;566;48.414;9.118;2023-05-10T16:42:32;13.60;90.40